Last 24 Hours

Red Mountain

10 Minute Data | America/Los_Angeles
as of 5/6/26 11:47 AM PDT
Date & Time Temp (°F) Dew Pt (°F) RH (%) Wind Spd (mph) Wind Dir (°) Wind Gust (mph) Wind Gst Dir (°) Daily Max Temp (°F) Daily Min Temp (°F)
5/6/26 - 1140 53.8 41.5 63 7.8 WSW | 238 14.1 WSW | 249 54.6 40.4
5/6/26 - 1130 52.8 41.0 64 5.8 WSW | 240 10.2 WSW | 252 53.7 40.4
5/6/26 - 1120 52.0 40.9 66 5.5 WSW | 248 10.7 SW | 221 52.6 40.4
5/6/26 - 1110 51.8 41.3 67 6.7 WSW | 245 12.1 WSW | 258 52.3 40.4
5/6/26 - 1100 51.0 40.9 68 7.1 WSW | 239 11.8 WSW | 239 51.6 40.4
5/6/26 - 1050 50.6 41.3 70 5.7 WSW | 248 9.7 WSW | 250 51.6 40.4
5/6/26 - 1040 50.3 41.6 72 6.6 WSW | 250 10.5 WNW | 290 51.4 40.4
5/6/26 - 1030 49.9 41.7 73 5.8 SW | 230 9.5 SSW | 209 51.4 40.4
5/6/26 - 1020 49.8 41.8 74 7.1 WSW | 256 11.2 WSW | 245 51.4 40.4
5/6/26 - 1010 50.2 42.0 73 5.1 SW | 230 9.3 SW | 215 51.4 40.4
5/6/26 - 1000 49.5 41.5 74 4.8 SW | 221 8.6 SW | 218 51.4 40.4
5/6/26 - 0950 49.7 41.7 74 4.3 SW | 220 6.6 SSW | 202 51.4 40.4
5/6/26 - 0940 50.4 41.6 72 3.2 SSE | 158 6.3 SSE | 155 51.4 40.4
5/6/26 - 0930 50.2 41.8 73 2.2 SSW | 204 5.1 NE | 43 51.4 40.4
5/6/26 - 0920 48.4 41.1 76 2.0 WSW | 253 4.2 W | 271 51.1 40.4
5/6/26 - 0910 50.1 42.1 74 1.7 NNE | 26 5.0 ESE | 114 51.1 40.4
5/6/26 - 0900 49.6 41.1 72 1.9 N | 349 3.7 WSW | 257 50.4 40.4
5/6/26 - 0850 48.7 40.7 74 3.2 NNE | 15 5.3 NE | 35 49.7 40.4
5/6/26 - 0840 48.0 40.6 75 2.9 N | 8 5.0 NNE | 32 48.6 40.4
5/6/26 - 0830 47.0 40.4 78 2.9 NNW | 342 5.3 NNW | 344 47.4 40.4
5/6/26 - 0820 45.8 39.7 79 4.3 NNW | 331 5.9 NW | 326 47.0 40.4
5/6/26 - 0810 46.2 39.9 78 5.1 NNW | 330 7.3 NW | 325 47.0 40.4
5/6/26 - 0800 46.3 39.4 77 6.5 N | 354 8.3 NNW | 347 46.9 40.4
5/6/26 - 0750 45.8 39.1 77 6.7 N | 349 8.4 NNW | 346 45.9 40.4
5/6/26 - 0740 45.4 39.1 79 7.8 N | 352 9.6 N | 354 45.8 40.4
5/6/26 - 0730 45.0 39.4 81 7.7 N | 351 9.4 N | 354 45.3 40.4
5/6/26 - 0720 44.8 39.1 80 8.9 NNW | 336 10.8 NW | 325 45.0 40.4
5/6/26 - 0710 44.5 38.8 80 8.7 NNW | 338 12.6 NW | 325 44.6 40.4
5/6/26 - 0700 44.2 38.8 81 8.6 NNW | 336 12.1 NW | 322 44.6 40.4
5/6/26 - 0650 44.3 38.6 80 9.7 NNW | 335 13.2 NNW | 334 44.6 40.4
5/6/26 - 0640 43.9 38.8 82 10.2 NNW | 340 15.0 NW | 312 44.6 40.4
5/6/26 - 0630 43.4 38.9 84 8.9 N | 357 12.0 NNW | 346 43.6 40.4
5/6/26 - 0620 43.1 38.8 85 8.4 N | 358 9.1 N | 354 43.2 40.4
5/6/26 - 0610 43.0 38.9 85 8.6 N | 356 9.4 N | 354 43.1 40.4
5/6/26 - 0600 42.8 38.8 86 8.8 N | 356 9.9 N | 0 42.9 40.4
5/6/26 - 0550 42.4 38.5 86 9.9 N | 351 10.6 N | 352 42.8 40.4
5/6/26 - 0540 42.1 38.1 85 9.6 N | 354 10.5 N | 353 42.2 40.4
5/6/26 - 0530 42.2 38.1 86 9.8 N | 354 11.0 N | 349 42.2 40.4
5/6/26 - 0520 42.1 38.1 86 9.9 N | 353 11.0 N | 352 42.2 40.4
5/6/26 - 0510 42.0 38.0 86 9.7 N | 359 10.8 N | 0 42.0 40.4
5/6/26 - 0500 42.0 37.8 85 10.6 N | 354 11.5 N | 0 42.0 40.4
5/6/26 - 0450 41.8 38.1 86 10.3 NNW | 347 11.7 N | 352 41.9 40.4
5/6/26 - 0440 41.6 38.0 87 9.0 NNW | 330 11.5 NNW | 333 41.8 40.4
5/6/26 - 0430 41.5 38.6 89 8.8 NNW | 338 10.5 NNW | 329 41.8 40.4
5/6/26 - 0420 41.4 38.9 91 10.3 N | 354 11.8 N | 352 41.8 40.4
5/6/26 - 0410 41.5 38.9 91 11.4 NNW | 346 12.9 NNW | 346 41.8 40.4
5/6/26 - 0400 41.5 39.1 91 11.6 N | 349 12.9 NNW | 346 41.8 40.4
5/6/26 - 0350 41.5 39.1 91 11.5 N | 349 12.5 NNW | 348 41.8 40.4
5/6/26 - 0340 41.3 39.6 93 10.7 NNW | 348 12.6 NNW | 347 41.8 40.4
5/6/26 - 0330 41.4 39.5 93 9.3 N | 352 10.5 N | 351 41.8 40.4
5/6/26 - 0320 41.6 39.3 92 9.6 N | 352 10.7 NNW | 347 41.8 40.4
5/6/26 - 0310 41.5 39.2 92 9.1 N | 356 10.4 N | 0 41.7 40.4
5/6/26 - 0300 41.0 39.9 96 10.7 N | 359 11.6 N | 354 41.4 40.4
5/6/26 - 0250 40.7 40.7 100 10.2 N | 359 11.6 N | 0 41.0 40.4
5/6/26 - 0240 40.6 40.6 100 10.9 N | 355 13.7 N | 351 41.0 40.4
5/6/26 - 0230 40.7 40.7 100 10.7 N | 360 11.7 N | 354 41.0 40.4
5/6/26 - 0220 40.7 40.7 100 10.6 N | 1 11.8 N | 0 41.0 40.4
5/6/26 - 0210 40.6 40.6 100 10.5 NNE | 12 11.3 NNE | 12 41.0 40.4
5/6/26 - 0200 40.5 40.5 100 10.7 NNE | 16 12.4 NNE | 13 41.0 40.4
5/6/26 - 0150 40.5 40.5 100 9.8 NNE | 13 12.1 N | 8 41.0 40.4
5/6/26 - 0140 40.6 40.6 100 10.3 N | 11 12.4 N | 6 41.0 40.4
5/6/26 - 0130 40.6 40.6 100 9.3 N | 1 11.4 N | 3 41.0 40.4
5/6/26 - 0120 40.7 40.7 100 8.1 N | 360 9.5 N | 354 41.0 40.5
5/6/26 - 0110 40.9 40.9 100 7.1 N | 355 8.8 N | 353 41.0 40.6
5/6/26 - 0100 41.0 40.9 100 6.4 N | 360 7.9 NNW | 348 49.0 38.6
5/6/26 - 0050 40.9 40.9 100 8.3 NNW | 341 10.9 NNW | 345 49.0 38.6
5/6/26 - 0040 40.7 40.6 100 7.6 NW | 326 9.9 NW | 320 49.0 38.6
5/6/26 - 0030 40.2 40.2 100 5.9 NW | 314 7.6 NNW | 330 49.0 38.6
5/6/26 - 0020 40.1 40.0 100 6.2 NW | 307 7.7 WNW | 301 49.0 38.6
5/6/26 - 0010 39.8 39.8 100 5.4 WNW | 298 7.3 WNW | 291 49.0 38.6
5/6/26 - 0000 39.7 39.7 100 6.5 WNW | 288 8.0 WNW | 294 49.0 38.6
5/5/26 - 2350 39.8 39.7 100 5.8 WNW | 291 8.1 WNW | 294 49.0 38.6
5/5/26 - 2340 39.7 39.6 100 5.2 WNW | 292 6.7 WNW | 297 49.0 38.6
5/5/26 - 2330 39.6 39.6 100 5.5 WNW | 286 7.3 WNW | 292 49.0 38.6
5/5/26 - 2320 39.3 39.3 100 6.5 WNW | 283 8.2 W | 280 49.0 38.6
5/5/26 - 2310 38.9 38.9 100 6.9 W | 265 9.4 W | 263 49.0 38.6
5/5/26 - 2300 39.0 39.0 100 7.1 WSW | 250 9.6 WSW | 242 49.0 38.8
5/5/26 - 2250 39.4 39.4 100 6.9 WSW | 247 9.1 SW | 235 49.0 39.0
5/5/26 - 2240 39.7 39.7 100 6.4 WSW | 240 8.8 WSW | 243 49.0 39.0
5/5/26 - 2230 39.8 39.8 100 6.1 WSW | 239 8.8 WSW | 237 49.0 39.0
5/5/26 - 2220 40.5 40.4 100 5.9 WSW | 243 8.0 WSW | 244 49.0 39.0
5/5/26 - 2210 40.8 40.8 100 6.7 WSW | 244 9.6 WSW | 247 49.0 39.0
5/5/26 - 2200 40.8 40.8 100 7.0 WSW | 251 9.6 WSW | 242 49.0 39.0
5/5/26 - 2150 40.9 40.9 100 7.5 WSW | 251 10.8 WSW | 250 49.0 39.0
5/5/26 - 2140 40.8 40.8 100 7.8 WSW | 256 11.0 WSW | 248 49.0 39.0
5/5/26 - 2130 40.8 40.8 100 6.8 WSW | 250 9.1 W | 260 49.0 39.0
5/5/26 - 2120 40.7 40.7 100 7.0 WSW | 238 9.4 WSW | 246 49.0 39.0
5/5/26 - 2110 40.7 40.7 100 7.3 SW | 235 9.3 SW | 231 49.0 39.0
5/5/26 - 2100 40.5 40.4 100 6.4 SW | 227 8.8 WSW | 238 49.0 39.0
5/5/26 - 2050 40.4 40.3 100 6.6 WSW | 237 8.5 SW | 230 49.0 39.0
5/5/26 - 2040 40.3 40.1 99 7.4 SW | 234 9.8 SW | 226 49.0 39.0
5/5/26 - 2030 40.4 40.1 99 8.8 SW | 230 10.7 SW | 235 49.0 39.0
5/5/26 - 2020 40.5 40.1 98 9.0 SW | 230 11.0 SW | 232 49.0 39.0
5/5/26 - 2010 40.6 40.2 98 9.9 WSW | 237 12.4 SW | 225 49.0 39.0
5/5/26 - 2000 40.8 40.3 98 10.4 SW | 233 12.9 SW | 228 49.0 39.0
5/5/26 - 1950 40.8 40.3 98 9.5 WSW | 237 11.6 WSW | 240 49.0 39.0
5/5/26 - 1940 40.9 40.2 98 10.7 WSW | 237 13.0 WSW | 240 49.0 39.0
5/5/26 - 1930 41.1 40.3 97 11.1 SW | 236 14.5 SW | 234 49.0 39.0
5/5/26 - 1920 41.4 40.6 97 12.4 SW | 233 17.1 WSW | 240 49.0 39.0
5/5/26 - 1910 41.6 40.9 97 10.9 SW | 231 17.3 SW | 222 49.0 39.0
5/5/26 - 1900 41.8 41.1 97 12.3 SW | 236 17.7 WSW | 242 49.0 39.0
5/5/26 - 1850 42.0 41.2 97 14.0 SW | 235 19.0 WSW | 242 49.0 39.0
5/5/26 - 1840 42.2 41.2 96 14.2 WSW | 237 19.5 WSW | 241 49.0 39.0
5/5/26 - 1830 42.4 41.0 95 15.4 WSW | 240 19.6 WSW | 246 49.0 39.0
5/5/26 - 1820 42.6 40.6 92 15.2 WSW | 240 20.0 WSW | 244 49.0 39.0
5/5/26 - 1810 43.4 40.6 90 13.0 SW | 231 20.8 WSW | 258 49.0 39.0
5/5/26 - 1800 44.0 40.9 89 13.5 SW | 230 21.8 WSW | 255 49.0 39.0
5/5/26 - 1750 44.8 41.0 87 13.6 SW | 228 21.2 SW | 220 49.0 39.0
5/5/26 - 1740 45.0 40.5 84 13.1 SW | 231 18.8 WSW | 250 49.0 39.0
5/5/26 - 1730 45.3 40.1 82 14.7 SW | 232 21.3 SW | 234 49.0 39.0
5/5/26 - 1720 45.3 39.5 80 10.9 SW | 229 20.3 SW | 233 49.0 39.0
5/5/26 - 1710 45.6 39.2 78 12.6 SW | 236 20.3 WSW | 249 49.0 39.0
5/5/26 - 1700 45.7 39.5 79 11.8 SW | 233 21.1 WSW | 244 49.0 39.0
5/5/26 - 1650 45.6 39.6 79 14.3 SW | 229 21.9 WSW | 244 49.0 39.0
5/5/26 - 1640 45.9 39.7 79 14.6 SW | 232 23.0 WSW | 242 49.0 39.0
5/5/26 - 1630 45.4 39.8 81 10.7 SW | 227 18.6 SW | 223 49.0 39.0
5/5/26 - 1620 45.0 40.0 82 11.1 SW | 230 20.5 WSW | 244 49.0 39.0
5/5/26 - 1610 44.6 39.7 83 14.7 WSW | 237 22.6 WSW | 240 49.0 39.0
5/5/26 - 1600 44.7 40.0 83 11.0 SW | 229 20.8 SW | 227 49.0 39.0
5/5/26 - 1550 45.4 40.1 82 10.8 WSW | 237 19.6 SW | 216 49.0 39.0
5/5/26 - 1540 45.1 40.1 82 13.0 WSW | 238 20.8 WSW | 257 49.0 39.0
5/5/26 - 1530 45.6 40.3 82 11.7 SW | 233 22.0 SW | 233 49.0 39.0
5/5/26 - 1520 45.1 39.5 80 15.6 SW | 233 22.8 SW | 231 49.0 39.0
5/5/26 - 1510 45.9 39.2 77 11.2 SW | 230 22.3 WSW | 245 49.0 39.0
5/5/26 - 1500 46.0 39.0 77 12.9 SW | 235 22.8 SW | 221 49.0 39.0
5/5/26 - 1450 46.2 39.5 77 10.6 SW | 228 19.5 WSW | 246 49.0 39.0
5/5/26 - 1440 46.3 39.5 77 12.2 SW | 228 22.1 WSW | 240 49.0 39.0
5/5/26 - 1430 46.1 39.2 77 12.8 SW | 232 21.6 WSW | 249 49.0 39.0
5/5/26 - 1420 46.8 40.2 78 10.4 SW | 227 22.2 W | 263 49.0 39.0
5/5/26 - 1410 47.4 39.8 75 12.9 SW | 228 23.3 WSW | 254 49.0 39.0
5/5/26 - 1400 47.1 39.6 75 11.8 SW | 227 20.3 SSW | 210 49.0 39.0
5/5/26 - 1350 45.8 39.3 78 12.4 SW | 219 20.2 SW | 217 46.7 39.0
5/5/26 - 1340 45.8 39.4 78 13.0 SW | 226 20.6 SW | 230 46.5 39.0
5/5/26 - 1330 43.8 42.5 95 12.8 SW | 227 21.9 WSW | 245 45.8 39.0
5/5/26 - 1320 43.9 43.9 100 11.5 SW | 227 19.1 SW | 230 45.8 39.0
5/5/26 - 1310 42.7 42.7 100 12.7 SW | 235 20.0 SW | 224 45.2 39.0
5/5/26 - 1300 43.0 43.0 100 11.6 SW | 231 18.3 SW | 225 44.4 39.0
5/5/26 - 1250 42.1 42.1 100 12.7 WSW | 238 21.0 WSW | 246 44.4 39.0
5/5/26 - 1240 41.6 41.6 100 12.0 SW | 231 19.8 SW | 216 44.4 39.0
5/5/26 - 1230 42.3 42.3 100 10.6 SW | 225 17.2 SW | 214 44.4 39.0
5/5/26 - 1220 42.7 42.7 100 10.2 SW | 227 17.5 SW | 234 44.4 39.0
5/5/26 - 1210 42.0 42.0 100 8.7 SW | 234 14.2 SW | 221 43.3 39.0
5/5/26 - 1200 41.2 41.2 100 10.2 SW | 233 15.2 WSW | 238 42.3 39.0
5/5/26 - 1150 41.5 41.5 100 11.9 WSW | 237 16.2 WSW | 238 42.2 39.0
5/5/26 - 1140 41.4 41.4 100 9.1 WSW | 243 15.9 WSW | 240 42.2 39.0
Max 53.8 43.9 100 15.6 - 23.3 - 54.6 40.6
Avg 43.6 40.2 89 9.2 - 13.2 - - -
Min 38.9 37.8 63 1.7 - 3.7 - 41.0 38.6